MMCL/CUL METAR and TAF weather

Enter ICAO airport designator
Station Type Date Time Source
MMCL METAR 2020/07/05 02:50 UTC NOAA

MMCL 050250Z 00000KT 10SM RA BKN080 BKN230 31/23 A2982 RMK SLP090 52013 957 60015 8/066 RAB38


Station Type Date Time Source
MMCL Decoded METAR 2020/07/05 02:50 UTC NOAA

Culiacan, Sin., Mexico (MMCL) 24-49N 107-24W
Jul 04, 2020 - 10:50 PM EDT / 2020.07.05 0250 UTC
Wind: Calm:0
Visibility: 10 mile(s):0
Sky conditions: mostly cloudy
Weather: rain
Temperature: 87 F (31 C)
Heat index: 93.9 F (34.4 C):1
Dew Point: 73 F (23 C)
Relative Humidity: 62%
Pressure (altimeter): 29.82 in. Hg (1009 hPa)
Pressure tendency: 0.04 inches (1.3 hPa) higher than three hours ago
ob: MMCL 050250Z 00000KT 10SM RA BKN080 BKN230 31/23 A2982 RMK SLP090 52013 957 60015 8/066 RAB38
cycle: 3

Station Type Date Time Source
MMCL TAF 2020/07/04 18:54 UTC NOAA

TAF TAF MMCL 041653Z 0418/0518 21012KT P6SM SCT015
BECMG 0422/0423 SCT015 BKN100
TEMPO 0423/0502 6SM -RA BKN015 BKN100
FM050300 15005KT P6SM SCT015 SCT100 BKN200
BECMG 0517/0518 20010KT P6SM SCT100 BKN200

Example: see airport list